createdAt,value
2022-08-09T00:00:00.459Z,17.40
2022-08-09T00:02:29.180Z,17.40
2022-08-09T00:05:03.466Z,17.20
2022-08-09T00:07:46.434Z,17.20
2022-08-09T00:10:17.986Z,17.20
2022-08-09T00:12:52.709Z,17.20
2022-08-09T00:15:26.557Z,17.20
2022-08-09T00:18:12.538Z,17.30
2022-08-09T00:20:49.687Z,17.30
2022-08-09T00:23:55.531Z,17.10
2022-08-09T00:26:07.699Z,17.00
2022-08-09T00:28:35.759Z,17.10
2022-08-09T00:31:09.139Z,16.90
2022-08-09T00:33:53.271Z,16.90
2022-08-09T00:36:22.514Z,16.90
2022-08-09T00:38:57.097Z,16.90
2022-08-09T00:44:16.565Z,16.90
2022-08-09T00:44:25.463Z,16.90
2022-08-09T00:46:57.690Z,17.00
2022-08-09T00:49:36.953Z,16.90
2022-08-09T00:52:15.946Z,16.90
2022-08-09T00:54:49.778Z,16.90
2022-08-09T00:57:33.594Z,16.80
2022-08-09T01:00:20.592Z,16.80
2022-08-09T01:03:03.643Z,16.70
2022-08-09T01:05:55.876Z,16.60
2022-08-09T01:08:55.780Z,16.50
2022-08-09T01:12:08.380Z,16.40
2022-08-09T01:14:41.728Z,16.50
2022-08-09T01:17:21.702Z,16.40
2022-08-09T01:20:03.691Z,16.30
2022-08-09T01:22:52.105Z,16.40
2022-08-09T01:25:37.442Z,16.40
2022-08-09T01:28:10.488Z,16.50
2022-08-09T01:30:52.426Z,16.50
2022-08-09T01:33:22.927Z,16.50
2022-08-09T01:36:07.340Z,16.50
2022-08-09T01:38:39.972Z,16.50
2022-08-09T01:41:26.015Z,16.50
2022-08-09T01:44:01.250Z,16.40
2022-08-09T01:46:31.732Z,16.50
2022-08-09T01:49:10.092Z,16.40
2022-08-09T01:52:07.060Z,16.40
2022-08-09T01:54:40.211Z,16.30
2022-08-09T01:57:17.819Z,16.20
2022-08-09T01:59:52.334Z,16.30
2022-08-09T02:02:30.807Z,16.20
2022-08-09T02:05:05.451Z,16.10
2022-08-09T02:08:39.641Z,16.10
2022-08-09T02:10:43.044Z,16.00
2022-08-09T02:13:25.861Z,15.90
2022-08-09T02:16:05.474Z,15.90
2022-08-09T02:18:34.154Z,15.90
2022-08-09T02:21:17.347Z,15.80
2022-08-09T02:23:58.227Z,15.80
2022-08-09T02:26:30.464Z,15.80
2022-08-09T02:29:07.203Z,15.90
2022-08-09T02:31:37.805Z,15.90
2022-08-09T02:34:25.718Z,15.90
2022-08-09T02:37:05.166Z,15.90
2022-08-09T02:39:45.423Z,15.80
2022-08-09T02:42:29.348Z,15.70
2022-08-09T02:45:02.812Z,15.60
2022-08-09T02:47:33.893Z,15.40
2022-08-09T02:50:26.913Z,15.60
2022-08-09T02:53:10.180Z,15.60
2022-08-09T02:55:58.558Z,15.70
2022-08-09T02:58:35.312Z,15.80
2022-08-09T03:01:11.043Z,15.80
2022-08-09T03:04:17.941Z,15.70
2022-08-09T03:06:27.339Z,15.70
2022-08-09T03:08:54.977Z,15.70
2022-08-09T03:11:29.742Z,15.70
2022-08-09T03:14:11.752Z,15.60
2022-08-09T03:16:44.836Z,15.60
2022-08-09T03:19:16.683Z,15.60
2022-08-09T03:22:00.569Z,15.50
2022-08-09T03:24:31.500Z,15.50
2022-08-09T03:27:21.510Z,15.40
2022-08-09T03:29:57.741Z,15.50
2022-08-09T03:32:31.306Z,15.60
2022-08-09T03:34:59.817Z,15.60
2022-08-09T03:37:56.492Z,15.60
2022-08-09T03:40:17.927Z,15.60
2022-08-09T03:42:46.686Z,15.70
2022-08-09T03:45:15.630Z,15.50
2022-08-09T03:47:46.832Z,15.60
2022-08-09T03:50:27.728Z,15.60
2022-08-09T03:52:58.443Z,15.60
2022-08-09T03:55:26.562Z,15.60
2022-08-09T03:58:03.385Z,15.60
2022-08-09T04:00:39.174Z,15.60
2022-08-09T04:03:07.735Z,15.60
2022-08-09T04:05:40.410Z,15.50
2022-08-09T04:08:07.991Z,15.60
2022-08-09T04:10:35.938Z,15.60
2022-08-09T04:13:11.515Z,15.60
2022-08-09T04:16:18.756Z,15.60
2022-08-09T04:18:27.027Z,15.60
2022-08-09T04:20:55.683Z,15.60
2022-08-09T04:23:24.979Z,15.50
2022-08-09T04:25:54.840Z,15.60
2022-08-09T04:28:34.053Z,15.60
2022-08-09T04:31:08.303Z,15.70
2022-08-09T04:33:51.953Z,15.70
2022-08-09T04:36:26.525Z,15.70
2022-08-09T04:38:55.502Z,15.70
2022-08-09T04:41:24.445Z,15.70
2022-08-09T04:44:06.971Z,15.70
2022-08-09T04:46:59.544Z,15.60
2022-08-09T04:49:54.702Z,15.60
2022-08-09T04:52:26.958Z,15.60
2022-08-09T04:54:56.923Z,15.70
2022-08-09T04:57:25.226Z,15.70
2022-08-09T04:59:55.916Z,15.70
2022-08-09T05:02:27.102Z,15.70
2022-08-09T05:04:55.256Z,15.60
2022-08-09T05:07:23.599Z,15.70
2022-08-09T05:09:51.838Z,15.70
2022-08-09T05:12:18.834Z,15.60
2022-08-09T05:14:50.326Z,15.60
2022-08-09T05:18:39.146Z,15.70
2022-08-09T05:20:06.389Z,15.60
2022-08-09T05:23:56.722Z,15.60
2022-08-09T05:25:21.982Z,15.70
2022-08-09T05:27:51.026Z,15.70
2022-08-09T05:30:19.425Z,15.70
2022-08-09T05:32:50.837Z,15.70
2022-08-09T05:35:21.829Z,15.70
2022-08-09T05:37:51.192Z,15.70
2022-08-09T05:40:18.763Z,15.70
2022-08-09T05:42:46.969Z,15.60
2022-08-09T05:45:14.600Z,15.50
2022-08-09T05:47:51.593Z,15.60
2022-08-09T05:50:39.865Z,15.80
2022-08-09T05:53:31.971Z,15.80
2022-08-09T05:56:01.522Z,15.80
2022-08-09T05:58:28.830Z,15.90
2022-08-09T06:00:55.825Z,15.90
2022-08-09T06:03:23.155Z,15.80
2022-08-09T06:06:02.719Z,15.80
2022-08-09T06:08:33.349Z,15.80
2022-08-09T06:11:01.025Z,15.80
2022-08-09T06:13:33.933Z,15.80
2022-08-09T06:16:04.905Z,15.90
2022-08-09T06:18:33.410Z,16.00
2022-08-09T06:21:01.135Z,16.00
2022-08-09T06:23:57.357Z,16.10
2022-08-09T06:26:28.482Z,16.10
2022-08-09T06:29:00.132Z,16.10
2022-08-09T06:31:39.862Z,16.20
2022-08-09T06:34:18.849Z,16.20
2022-08-09T06:36:46.544Z,16.30
2022-08-09T06:39:13.822Z,16.40
2022-08-09T06:42:09.184Z,16.50
2022-08-09T06:44:29.636Z,16.60
2022-08-09T06:46:56.728Z,16.70
2022-08-09T06:49:44.738Z,16.80
2022-08-09T06:52:15.866Z,17.10
2022-08-09T06:54:46.102Z,17.40
2022-08-09T06:57:14.842Z,17.70
2022-08-09T07:00:51.955Z,18.00
2022-08-09T07:02:31.700Z,18.00
2022-08-09T07:04:59.845Z,18.20
2022-08-09T07:08:00.670Z,18.60
2022-08-09T07:10:29.995Z,18.70
2022-08-09T07:12:59.546Z,18.80
2022-08-09T07:15:53.825Z,18.90
2022-08-09T07:18:17.363Z,18.90
2022-08-09T07:20:44.826Z,19.10
2022-08-09T07:23:19.426Z,19.30
2022-08-09T07:25:52.027Z,19.50
2022-08-09T07:28:26.384Z,19.60
2022-08-09T07:30:55.702Z,19.60
2022-08-09T07:33:23.112Z,19.70
2022-08-09T07:35:54.080Z,19.90
2022-08-09T07:38:23.199Z,20.30
2022-08-09T07:41:00.981Z,20.10
2022-08-09T07:43:41.473Z,20.00
2022-08-09T07:46:19.089Z,20.20
2022-08-09T07:48:58.922Z,20.30
2022-08-09T07:52:06.297Z,20.40
2022-08-09T07:54:14.139Z,20.40
2022-08-09T07:56:49.766Z,19.80
2022-08-09T07:59:25.068Z,19.70
2022-08-09T08:02:01.095Z,19.90
2022-08-09T08:04:32.264Z,19.80
2022-08-09T08:07:27.073Z,19.90
2022-08-09T08:09:55.096Z,20.20
2022-08-09T08:12:36.822Z,20.30
2022-08-09T08:15:07.446Z,20.40
2022-08-09T08:17:52.128Z,20.40
2022-08-09T08:20:30.356Z,20.30
2022-08-09T08:23:06.394Z,20.50
2022-08-09T08:25:46.644Z,20.40
2022-08-09T08:28:17.940Z,20.20
2022-08-09T08:30:48.728Z,20.00
2022-08-09T08:33:24.277Z,20.10
2022-08-09T08:35:58.468Z,20.20
2022-08-09T08:38:29.295Z,20.40
2022-08-09T08:40:57.132Z,20.50
2022-08-09T08:43:26.554Z,20.60
2022-08-09T08:46:09.823Z,20.40
2022-08-09T08:48:51.627Z,20.60
2022-08-09T08:51:22.548Z,20.80
2022-08-09T08:54:03.700Z,20.90
2022-08-09T08:56:35.267Z,21.00
2022-08-09T08:59:07.976Z,21.00
2022-08-09T09:01:56.962Z,20.90
2022-08-09T09:04:31.085Z,20.60
2022-08-09T09:07:02.894Z,20.80
2022-08-09T09:09:58.692Z,20.60
2022-08-09T09:12:22.895Z,20.90
2022-08-09T09:14:59.661Z,21.20
2022-08-09T09:17:49.400Z,21.40
2022-08-09T09:20:21.478Z,21.40
2022-08-09T09:22:53.305Z,21.30
2022-08-09T09:26:04.763Z,21.10
2022-08-09T09:28:39.032Z,21.00
2022-08-09T09:32:04.578Z,21.00
2022-08-09T09:34:18.042Z,21.40
2022-08-09T09:36:51.211Z,21.30
2022-08-09T09:39:42.533Z,21.30
2022-08-09T09:42:27.856Z,21.00
2022-08-09T09:45:03.231Z,21.30
2022-08-09T09:47:32.447Z,21.60
2022-08-09T09:50:14.832Z,21.90
2022-08-09T09:52:56.289Z,22.20
2022-08-09T09:55:31.405Z,22.10
2022-08-09T09:58:16.696Z,21.90
2022-08-09T10:00:54.344Z,22.00
2022-08-09T10:03:57.043Z,21.90
2022-08-09T10:06:27.886Z,22.00
2022-08-09T10:09:02.985Z,21.80
2022-08-09T10:12:01.349Z,21.70
2022-08-09T10:14:33.419Z,21.90
2022-08-09T10:17:39.931Z,21.80
2022-08-09T10:20:01.555Z,22.00
2022-08-09T10:22:33.676Z,22.30
2022-08-09T10:25:06.978Z,22.40
2022-08-09T10:27:56.598Z,22.40
2022-08-09T10:32:13.710Z,22.30
2022-08-09T10:33:29.477Z,22.20
2022-08-09T10:36:11.602Z,22.30
2022-08-09T10:38:55.861Z,22.40
2022-08-09T10:41:26.789Z,22.60
2022-08-09T10:44:01.136Z,22.70
2022-08-09T10:46:34.291Z,22.90
2022-08-09T10:49:13.251Z,22.80
2022-08-09T10:52:03.019Z,22.60
2022-08-09T10:54:31.626Z,22.50
2022-08-09T10:57:16.952Z,22.50
2022-08-09T10:59:58.114Z,22.40
2022-08-09T11:03:14.431Z,22.50
2022-08-09T11:05:30.238Z,22.50
2022-08-09T11:08:33.337Z,22.70
2022-08-09T11:11:08.904Z,23.00
2022-08-09T11:13:50.040Z,22.90
2022-08-09T11:16:39.291Z,22.90
2022-08-09T11:19:11.193Z,23.10
2022-08-09T11:22:05.393Z,22.90
2022-08-09T11:24:58.214Z,23.00
2022-08-09T11:28:04.488Z,23.00
2022-08-09T11:30:33.762Z,23.10
2022-08-09T11:33:21.056Z,23.10
2022-08-09T11:36:00.213Z,23.20
2022-08-09T11:38:41.390Z,23.00
2022-08-09T11:41:13.047Z,23.00
2022-08-09T11:43:49.298Z,23.00
2022-08-09T11:46:26.677Z,23.30
2022-08-09T11:49:05.255Z,23.20
2022-08-09T11:52:56.353Z,23.50
2022-08-09T11:55:22.206Z,23.70
2022-08-09T11:58:12.006Z,23.90
2022-08-09T12:00:52.773Z,23.70
2022-08-09T12:03:54.798Z,23.70
2022-08-09T12:06:26.605Z,23.90
2022-08-09T12:09:01.385Z,23.70
2022-08-09T12:11:28.833Z,23.80
2022-08-09T12:14:07.632Z,23.90
2022-08-09T12:16:42.869Z,23.60
2022-08-09T12:19:12.031Z,24.00
2022-08-09T12:21:48.477Z,24.00
2022-08-09T12:24:25.716Z,23.80
2022-08-09T12:29:09.804Z,24.00
2022-08-09T12:30:01.758Z,24.00
2022-08-09T12:32:42.288Z,24.30
2022-08-09T12:35:11.037Z,24.50
2022-08-09T12:37:50.196Z,24.50
2022-08-09T12:40:21.382Z,24.40
2022-08-09T12:42:51.879Z,24.20
2022-08-09T12:45:34.298Z,24.20
2022-08-09T12:48:20.258Z,24.20
2022-08-09T12:50:55.912Z,24.30
2022-08-09T12:53:38.590Z,24.50
2022-08-09T12:56:37.073Z,24.30
2022-08-09T12:59:13.968Z,24.20
2022-08-09T13:01:48.612Z,24.20
2022-08-09T13:04:37.196Z,24.00
2022-08-09T13:07:19.398Z,24.20
2022-08-09T13:09:55.219Z,24.60
2022-08-09T13:12:29.408Z,24.80
2022-08-09T13:15:23.349Z,24.90
2022-08-09T13:18:05.230Z,24.70
2022-08-09T13:21:04.101Z,24.50
2022-08-09T13:24:06.888Z,24.90
2022-08-09T13:26:49.695Z,24.60
2022-08-09T13:29:20.782Z,24.50
2022-08-09T13:32:15.195Z,24.70
2022-08-09T13:34:47.135Z,25.00
2022-08-09T13:37:24.475Z,25.20
2022-08-09T13:41:46.489Z,25.00
2022-08-09T13:42:54.131Z,24.90
2022-08-09T13:45:21.284Z,24.80
2022-08-09T13:47:59.407Z,24.80
2022-08-09T13:50:30.813Z,25.10
2022-08-09T13:52:58.418Z,25.20
2022-08-09T13:55:28.713Z,25.10
2022-08-09T13:57:58.444Z,24.80
2022-08-09T14:00:28.531Z,24.90
2022-08-09T14:03:03.190Z,25.10
2022-08-09T14:05:57.049Z,25.00
2022-08-09T14:08:28.398Z,24.90
2022-08-09T14:10:56.507Z,25.20
2022-08-09T14:14:16.418Z,25.30
2022-08-09T14:16:17.529Z,25.10
2022-08-09T14:18:49.267Z,25.20
2022-08-09T14:21:24.962Z,25.10
2022-08-09T14:23:57.445Z,25.40
2022-08-09T14:26:32.207Z,25.40
2022-08-09T14:29:25.820Z,25.20
2022-08-09T14:31:55.360Z,25.30
2022-08-09T14:34:30.711Z,25.50
2022-08-09T14:37:05.976Z,25.40
2022-08-09T14:39:39.958Z,25.30
2022-08-09T14:42:08.172Z,25.20
2022-08-09T14:44:48.742Z,24.90
2022-08-09T14:47:42.952Z,25.00
2022-08-09T14:50:09.518Z,25.20
2022-08-09T14:52:38.426Z,25.40
2022-08-09T14:55:07.021Z,25.40
2022-08-09T14:57:43.547Z,25.30
2022-08-09T15:00:12.736Z,25.20
2022-08-09T15:02:40.147Z,25.20
2022-08-09T15:05:08.385Z,25.00
2022-08-09T15:07:35.767Z,25.10
2022-08-09T15:10:10.593Z,25.00
2022-08-09T15:12:44.835Z,25.00
2022-08-09T15:15:12.987Z,25.00
2022-08-09T15:17:41.509Z,25.30
2022-08-09T15:20:11.779Z,25.40
2022-08-09T15:22:46.709Z,25.30
2022-08-09T15:25:40.887Z,25.30
2022-08-09T15:28:05.106Z,25.10
2022-08-09T15:31:01.020Z,25.40
2022-08-09T15:34:17.709Z,25.40
2022-08-09T15:36:28.490Z,25.30
2022-08-09T15:39:00.062Z,25.30
2022-08-09T15:41:30.990Z,25.40
2022-08-09T15:44:03.867Z,25.30
2022-08-09T15:46:34.091Z,25.20
2022-08-09T15:49:21.260Z,25.20
2022-08-09T15:52:03.230Z,25.10
2022-08-09T15:54:51.363Z,25.20
2022-08-09T15:57:35.147Z,25.30
2022-08-09T16:00:14.131Z,25.40
2022-08-09T16:02:53.522Z,25.20
2022-08-09T16:05:22.235Z,25.00
2022-08-09T16:07:50.877Z,25.10
2022-08-09T16:10:38.774Z,25.00
2022-08-09T16:13:20.793Z,25.00
2022-08-09T16:16:10.307Z,25.10
2022-08-09T16:18:44.730Z,24.80
2022-08-09T16:21:17.486Z,24.90
2022-08-09T16:23:54.955Z,24.80
2022-08-09T16:26:34.804Z,24.70
2022-08-09T16:29:11.120Z,24.70
2022-08-09T16:32:19.621Z,24.90
2022-08-09T16:34:44.812Z,24.90
2022-08-09T16:37:50.646Z,24.90
2022-08-09T16:40:10.219Z,24.80
2022-08-09T16:42:37.810Z,24.80
2022-08-09T16:45:07.782Z,24.60
2022-08-09T16:48:40.670Z,24.60
2022-08-09T16:50:31.615Z,24.60
2022-08-09T16:53:02.168Z,24.50
2022-08-09T16:55:31.428Z,24.60
2022-08-09T16:58:17.770Z,24.70
2022-08-09T17:00:48.310Z,24.60
2022-08-09T17:03:21.974Z,24.50
2022-08-09T17:06:07.004Z,24.40
2022-08-09T17:08:46.289Z,24.40
2022-08-09T17:11:39.967Z,24.40
2022-08-09T17:14:26.080Z,24.50
2022-08-09T17:17:01.426Z,24.50
2022-08-09T17:19:46.338Z,24.30
2022-08-09T17:22:28.667Z,24.20
2022-08-09T17:25:10.019Z,24.20
2022-08-09T17:27:39.963Z,24.20
2022-08-09T17:30:17.244Z,24.20
2022-08-09T17:32:47.266Z,24.10
2022-08-09T17:35:17.251Z,24.10
2022-08-09T17:38:11.243Z,24.00
2022-08-09T17:40:34.734Z,24.00
2022-08-09T17:43:33.154Z,24.00
2022-08-09T17:46:03.828Z,23.90
2022-08-09T17:48:32.144Z,23.80
2022-08-09T17:51:10.111Z,23.70
2022-08-09T17:53:52.323Z,23.70
2022-08-09T17:56:35.673Z,23.70
2022-08-09T17:59:12.001Z,23.60
2022-08-09T18:02:10.828Z,23.50
2022-08-09T18:04:32.044Z,23.50
2022-08-09T18:07:00.304Z,23.40
2022-08-09T18:09:41.145Z,23.40
2022-08-09T18:12:17.614Z,23.30
2022-08-09T18:14:54.501Z,23.10
2022-08-09T18:17:27.351Z,23.20
2022-08-09T18:20:54.199Z,23.00
2022-08-09T18:23:05.798Z,23.00
2022-08-09T18:25:50.711Z,23.00
2022-08-09T18:30:39.882Z,22.90
2022-08-09T18:31:11.332Z,22.90
2022-08-09T18:33:40.090Z,22.70
2022-08-09T18:36:08.746Z,22.70
2022-08-09T18:38:41.812Z,22.70
2022-08-09T18:41:08.854Z,22.60
2022-08-09T18:43:36.619Z,22.50
2022-08-09T18:46:49.687Z,22.40
2022-08-09T18:49:07.285Z,22.30
2022-08-09T18:51:38.594Z,22.20
2022-08-09T18:54:28.747Z,22.30
2022-08-09T18:57:05.275Z,22.30
2022-08-09T18:59:51.480Z,22.20
2022-08-09T19:02:32.872Z,22.20
2022-08-09T19:05:19.798Z,22.00
2022-08-09T19:08:04.894Z,22.00
2022-08-09T19:10:39.066Z,22.00
2022-08-09T19:13:22.070Z,21.80
2022-08-09T19:15:55.730Z,21.80
2022-08-09T19:18:33.525Z,21.80
2022-08-09T19:21:09.468Z,21.80
2022-08-09T19:24:37.210Z,21.70
2022-08-09T19:26:31.141Z,21.50
2022-08-09T19:29:18.177Z,21.50
2022-08-09T19:31:51.168Z,21.70
2022-08-09T19:34:23.066Z,21.60
2022-08-09T19:36:56.152Z,21.40
2022-08-09T20:02:08.065Z,21.10
2022-08-09T20:04:47.563Z,21.10
2022-08-09T20:07:22.426Z,21.00
2022-08-09T20:09:49.703Z,20.90
2022-08-09T20:12:31.636Z,20.90
2022-08-09T20:16:31.831Z,20.80
2022-08-09T20:17:54.801Z,20.70
2022-08-09T20:20:22.350Z,20.60
2022-08-09T20:22:55.992Z,20.50
2022-08-09T20:25:23.942Z,20.30
2022-08-09T20:27:52.266Z,20.30
2022-08-09T20:30:23.538Z,20.30
2022-08-09T20:32:52.184Z,20.30
2022-08-09T20:35:23.078Z,20.20
2022-08-09T20:38:23.938Z,20.20
2022-08-09T20:40:37.325Z,20.10
2022-08-09T20:43:18.123Z,19.80
2022-08-09T20:46:00.531Z,19.90
2022-08-09T20:48:31.007Z,20.00
2022-08-09T20:50:59.924Z,19.90
2022-08-09T20:53:36.846Z,19.80
2022-08-09T20:56:20.231Z,19.70
2022-08-09T20:58:49.698Z,19.80
2022-08-09T21:01:33.487Z,19.70
2022-08-09T21:04:08.216Z,19.70
2022-08-09T21:06:51.949Z,19.70
2022-08-09T21:09:32.758Z,19.60
2022-08-09T21:14:38.229Z,19.60
2022-08-09T21:18:11.682Z,19.40
2022-08-09T21:20:19.008Z,19.50
2022-08-09T21:22:46.893Z,19.40
2022-08-09T21:25:38.506Z,19.30
2022-08-09T21:28:07.584Z,19.40
2022-08-09T21:30:40.526Z,19.20
2022-08-09T21:33:08.315Z,19.20
2022-08-09T21:35:40.814Z,19.00
2022-08-09T21:38:21.057Z,18.90
2022-08-09T21:40:58.841Z,18.90
2022-08-09T21:43:56.149Z,18.80
2022-08-09T21:46:13.816Z,19.00
2022-08-09T21:48:42.504Z,19.10
2022-08-09T21:51:30.138Z,19.00
2022-08-09T21:54:03.339Z,19.00
2022-08-09T21:56:42.988Z,18.80
2022-08-09T21:59:17.302Z,18.80
2022-08-09T22:02:00.542Z,18.80
2022-08-09T22:04:56.761Z,18.80
2022-08-09T22:07:35.281Z,18.70
2022-08-09T22:10:09.487Z,18.60
2022-08-09T22:12:38.051Z,18.70
2022-08-09T22:15:06.864Z,18.70
2022-08-09T22:17:46.103Z,18.60
2022-08-09T22:20:21.526Z,18.60
2022-08-09T22:22:54.627Z,18.60
2022-08-09T22:26:06.901Z,18.70
2022-08-09T22:28:08.710Z,18.80
2022-08-09T22:30:36.719Z,18.70
2022-08-09T22:33:09.300Z,18.60
2022-08-09T22:36:01.309Z,18.50
2022-08-09T22:38:24.352Z,18.50
2022-08-09T22:40:57.340Z,18.50
2022-08-09T22:44:00.524Z,18.50
2022-08-09T22:48:12.674Z,18.40
2022-08-09T22:49:10.335Z,18.40
2022-08-09T22:51:39.424Z,18.50
2022-08-09T22:54:10.880Z,18.40
2022-08-09T22:56:41.454Z,18.20
2022-08-09T22:59:57.795Z,18.20
2022-08-09T23:01:56.113Z,18.20
2022-08-09T23:04:25.554Z,18.00
2022-08-09T23:07:11.567Z,18.00
2022-08-09T23:09:41.314Z,18.10
2022-08-09T23:12:09.620Z,18.00
2022-08-09T23:14:41.962Z,17.90
2022-08-09T23:17:10.387Z,17.90
2022-08-09T23:20:00.965Z,18.00
2022-08-09T23:22:24.924Z,17.90
2022-08-09T23:24:51.873Z,18.00
2022-08-09T23:27:18.865Z,17.90
2022-08-09T23:29:45.879Z,17.80
2022-08-09T23:32:12.828Z,17.90
2022-08-09T23:34:39.893Z,17.90
2022-08-09T23:37:07.199Z,18.00
2022-08-09T23:39:34.228Z,17.90
2022-08-09T23:42:01.655Z,17.80
2022-08-09T23:44:29.616Z,17.90
2022-08-09T23:46:57.388Z,17.80
2022-08-09T23:49:25.793Z,17.80
2022-08-09T23:51:54.384Z,17.80
2022-08-09T23:54:26.640Z,17.60
2022-08-09T23:56:55.884Z,17.60
2022-08-09T23:59:24.631Z,17.70
